Time;durP1;ratioP1;P1;durP2;ratioP2;P2;SDS_P1;SDS_P2;PMS_P1;PMS_P2;Temp;Humidity;BMP_temperature;BMP_pressure;BME280_temperature;BME280_humidity;BME280_pressure;Samples;Min_cycle;Max_cycle;Signal;HPM_P1;HPM_P2
2023/11/13 00:01:12;;;;;;;3.43;3.13;;;7.00;99.90;;;;;;5086571;28;20211;-66
2023/11/13 00:03:39;;;;;;;4.57;3.17;;;6.90;99.90;;;;;;5086572;28;20217;-67
2023/11/13 00:06:06;;;;;;;4.83;3.23;;;6.90;99.90;;;;;;5086277;28;20321;-67
2023/11/13 00:08:33;;;;;;;4.30;2.97;;;6.90;99.90;;;;;;5085399;28;20242;-67
2023/11/13 00:11:01;;;;;;;7.73;3.93;;;6.90;99.90;;;;;;5086320;28;20203;-67
2023/11/13 00:13:28;;;;;;;3.17;2.87;;;6.90;99.90;;;;;;5086403;28;20211;-67
2023/11/13 00:15:55;;;;;;;3.20;2.50;;;6.90;99.90;;;;;;5086271;28;20206;-67
2023/11/13 00:18:25;;;;;;;3.17;2.57;;;6.90;99.90;;;;;;5085654;28;20325;-67
2023/11/13 00:20:53;;;;;;;3.67;3.07;;;6.90;99.90;;;;;;5086203;28;20195;-67
2023/11/13 00:23:19;;;;;;;4.20;3.23;;;6.90;99.90;;;;;;5088276;28;20686;-67
2023/11/13 00:25:46;;;;;;;5.13;3.33;;;6.90;99.90;;;;;;5089895;28;20301;-67
2023/11/13 00:28:13;;;;;;;3.97;2.97;;;6.90;99.90;;;;;;5085587;28;20234;-67
2023/11/13 00:30:40;;;;;;;2.77;2.40;;;6.90;99.90;;;;;;5085616;28;20297;-67
2023/11/13 00:33:08;;;;;;;2.60;2.30;;;6.90;99.90;;;;;;5085562;28;20222;-66
2023/11/13 00:35:36;;;;;;;3.73;2.70;;;7.00;99.90;;;;;;5085814;28;20206;-66
2023/11/13 00:38:03;;;;;;;6.27;2.83;;;6.90;99.90;;;;;;5085973;28;20642;-67
2023/11/13 00:40:34;;;;;;;3.03;2.73;;;7.00;99.90;;;;;;5086060;28;20226;-67
2023/11/13 00:43:01;;;;;;;3.53;2.87;;;7.00;99.90;;;;;;5086215;28;20278;-67
2023/11/13 00:45:27;;;;;;;3.90;2.83;;;7.00;99.90;;;;;;5085710;28;20231;-67
2023/11/13 00:47:54;;;;;;;4.77;2.40;;;7.00;99.90;;;;;;5085629;28;20208;-67
2023/11/13 00:50:22;;;;;;;3.33;2.70;;;7.00;99.90;;;;;;5085511;28;20865;-67
2023/11/13 00:52:50;;;;;;;3.77;2.40;;;7.00;99.90;;;;;;5085580;28;20206;-67
2023/11/13 00:55:17;;;;;;;3.53;2.70;;;7.00;99.90;;;;;;5085120;28;20203;-67
2023/11/13 00:57:44;;;;;;;2.53;2.33;;;7.00;99.90;;;;;;5085153;28;20294;-67
2023/11/13 01:00:13;;;;;;;3.90;2.90;;;7.00;99.90;;;;;;5085029;28;20234;-66
2023/11/13 01:02:40;;;;;;;3.00;2.80;;;7.10;99.90;;;;;;5085244;28;20728;-66
2023/11/13 01:05:07;;;;;;;2.53;2.33;;;7.10;99.90;;;;;;5085224;28;20211;-67
2023/11/13 01:07:34;;;;;;;3.27;2.83;;;7.10;99.90;;;;;;5085284;28;20699;-67
2023/11/13 01:10:03;;;;;;;15.20;7.20;;;7.10;99.90;;;;;;5085636;28;20246;-66
2023/11/13 01:12:30;;;;;;;5.43;3.00;;;7.10;99.90;;;;;;5085288;28;20258;-66
2023/11/13 01:14:57;;;;;;;3.60;2.93;;;7.10;99.90;;;;;;5085208;28;20259;-66
2023/11/13 01:17:24;;;;;;;5.67;3.50;;;7.10;99.90;;;;;;5084911;28;20636;-66
2023/11/13 01:19:52;;;;;;;2.70;2.50;;;7.10;99.90;;;;;;5093746;28;20234;-66
2023/11/13 01:22:19;;;;;;;2.20;2.00;;;7.10;99.90;;;;;;5100161;28;20661;-67
2023/11/13 01:24:46;;;;;;;5.37;4.27;;;7.10;99.90;;;;;;5084857;28;20213;-67
2023/11/13 01:27:14;;;;;;;5.13;3.20;;;7.10;99.90;;;;;;5085051;28;20199;-67
2023/11/13 01:29:41;;;;;;;6.03;4.47;;;7.10;99.90;;;;;;5085358;28;20207;-67
2023/11/13 01:32:08;;;;;;;6.43;4.27;;;7.10;99.90;;;;;;5085094;28;20293;-68
2023/11/13 01:34:35;;;;;;;10.23;5.23;;;7.10;99.90;;;;;;5084796;28;20293;-67
2023/11/13 01:37:02;;;;;;;7.77;3.30;;;7.10;99.90;;;;;;5084944;28;20202;-67
2023/11/13 01:39:29;;;;;;;8.00;5.50;;;7.00;99.90;;;;;;5084707;28;20222;-67
2023/11/13 01:41:56;;;;;;;3.63;2.83;;;7.10;99.90;;;;;;5084632;28;20210;-67
2023/11/13 01:44:25;;;;;;;3.23;2.93;;;7.00;99.90;;;;;;5084688;28;20872;-67
2023/11/13 01:46:52;;;;;;;2.93;2.70;;;7.00;99.90;;;;;;5084699;28;20281;-67
2023/11/13 01:49:20;;;;;;;2.77;2.53;;;7.10;99.90;;;;;;5084758;28;20654;-67
2023/11/13 01:51:48;;;;;;;2.77;2.57;;;7.00;99.90;;;;;;5084787;28;20688;-67
2023/11/13 01:54:16;;;;;;;3.00;2.80;;;7.00;99.90;;;;;;5084482;28;20301;-67
2023/11/13 01:56:44;;;;;;;2.70;2.50;;;7.00;99.90;;;;;;5084589;28;20940;-67
2023/11/13 01:59:13;;;;;;;2.40;2.30;;;7.10;99.90;;;;;;5084752;28;20321;-67
2023/11/13 02:01:42;;;;;;;2.30;2.20;;;7.10;99.90;;;;;;5084843;28;20268;-67
2023/11/13 02:04:09;;;;;;;2.73;2.53;;;7.10;99.90;;;;;;5084832;28;20206;-67
2023/11/13 02:06:36;;;;;;;3.20;2.00;;;7.10;99.90;;;;;;5084485;28;20214;-68
2023/11/13 02:09:05;;;;;;;3.13;2.13;;;7.10;99.90;;;;;;5083617;28;20926;-67
2023/11/13 02:11:32;;;;;;;2.00;1.90;;;7.10;99.90;;;;;;5084422;28;20677;-67
2023/11/13 02:13:59;;;;;;;2.00;1.83;;;7.10;99.90;;;;;;5084527;28;20633;-67
2023/11/13 02:16:26;;;;;;;2.10;1.90;;;7.10;99.90;;;;;;5083993;28;20238;-67
2023/11/13 02:18:54;;;;;;;2.00;1.80;;;7.20;99.90;;;;;;5084199;28;20223;-67
2023/11/13 02:21:21;;;;;;;2.03;1.87;;;7.20;99.90;;;;;;5084233;28;20289;-67
2023/11/13 02:23:52;;;;;;;2.07;1.87;;;7.20;99.90;;;;;;5083927;28;20661;-67
2023/11/13 02:26:19;;;;;;;2.03;1.93;;;7.20;99.90;;;;;;5084511;28;20274;-67
2023/11/13 02:28:46;;;;;;;1.97;1.70;;;7.20;99.90;;;;;;5084406;28;20203;-68
2023/11/13 02:31:13;;;;;;;2.00;1.70;;;7.10;99.90;;;;;;5084166;28;20735;-67
2023/11/13 02:33:40;;;;;;;2.00;1.90;;;7.10;99.90;;;;;;5088251;28;20249;-67
2023/11/13 02:36:08;;;;;;;1.73;1.63;;;7.10;99.90;;;;;;5087472;28;20221;-67
2023/11/13 02:38:36;;;;;;;1.60;1.60;;;7.10;99.90;;;;;;5087813;28;20211;-67
2023/11/13 02:41:05;;;;;;;1.83;1.73;;;7.10;99.90;;;;;;5087759;28;20206;-67
2023/11/13 02:43:32;;;;;;;2.40;1.70;;;7.10;99.90;;;;;;5088143;28;20297;-66
2023/11/13 02:45:59;;;;;;;2.90;1.67;;;7.00;99.90;;;;;;5087784;28;20207;-67
2023/11/13 02:48:26;;;;;;;1.70;1.60;;;7.00;99.90;;;;;;5088164;28;20213;-67
2023/11/13 02:50:52;;;;;;;1.60;1.50;;;7.10;99.90;;;;;;5087695;28;20556;-67
2023/11/13 02:53:19;;;;;;;1.97;1.67;;;7.10;99.90;;;;;;5087854;28;20483;-67
2023/11/13 02:55:48;;;;;;;1.97;1.83;;;7.10;99.90;;;;;;5088144;28;20286;-67
2023/11/13 02:58:16;;;;;;;2.13;1.70;;;7.10;99.90;;;;;;5087727;28;20210;-67
2023/11/13 03:00:43;;;;;;;1.77;1.60;;;7.10;99.90;;;;;;5087220;28;20235;-67
2023/11/13 03:03:10;;;;;;;2.33;1.70;;;7.10;99.90;;;;;;5087583;28;20326;-67
2023/11/13 03:05:36;;;;;;;1.70;1.60;;;7.10;99.90;;;;;;5087928;28;20217;-66
2023/11/13 03:08:05;;;;;;;2.17;1.97;;;7.10;99.90;;;;;;5087443;28;20239;-67
2023/11/13 03:10:32;;;;;;;1.70;1.60;;;7.10;99.90;;;;;;5087629;28;20202;-67
2023/11/13 03:12:59;;;;;;;3.37;1.80;;;7.10;99.90;;;;;;5087714;28;20261;-67
2023/11/13 03:15:27;;;;;;;2.10;2.00;;;7.00;99.90;;;;;;5086733;28;20753;-67
2023/11/13 03:17:54;;;;;;;3.63;1.77;;;7.10;99.90;;;;;;5087118;28;20669;-66
2023/11/13 03:20:24;;;;;;;1.97;1.80;;;7.10;99.90;;;;;;5086817;28;20708;-67
2023/11/13 03:22:50;;;;;;;2.13;1.93;;;7.00;99.90;;;;;;5087199;28;20203;-67
2023/11/13 03:25:18;;;;;;;2.03;1.93;;;7.00;99.90;;;;;;5086926;28;20710;-67
2023/11/13 03:27:45;;;;;;;1.60;1.50;;;7.00;99.90;;;;;;5070378;28;20207;-67
2023/11/13 03:30:13;;;;;;;2.20;2.10;;;7.00;99.90;;;;;;5077866;28;20211;-67
2023/11/13 03:32:43;;;;;;;1.93;1.70;;;7.10;99.90;;;;;;5085736;28;20206;-67
2023/11/13 03:35:11;;;;;;;2.00;1.80;;;7.00;99.90;;;;;;5085768;28;21008;-67
2023/11/13 03:37:38;;;;;;;3.60;2.13;;;7.00;99.90;;;;;;5104874;28;20992;-67
2023/11/13 03:40:07;;;;;;;1.60;1.50;;;6.90;99.90;;;;;;5089707;28;20696;-67
2023/11/13 03:42:35;;;;;;;4.30;1.73;;;6.90;99.90;;;;;;5085462;28;20233;-67
2023/11/13 03:45:02;;;;;;;2.17;2.00;;;6.90;99.90;;;;;;5084958;28;20206;-67
2023/11/13 03:47:29;;;;;;;3.07;2.13;;;6.90;99.90;;;;;;5085260;28;20211;-67
2023/11/13 03:49:57;;;;;;;1.97;1.87;;;6.90;99.90;;;;;;5080880;28;20199;-67
2023/11/13 03:52:24;;;;;;;2.53;1.70;;;6.90;99.90;;;;;;5086514;28;20195;-67
2023/11/13 03:54:51;;;;;;;1.83;1.73;;;7.00;99.90;;;;;;5086630;28;20356;-67
2023/11/13 03:57:18;;;;;;;2.20;2.10;;;7.00;99.90;;;;;;5086108;28;20619;-67
2023/11/13 03:59:45;;;;;;;2.40;2.23;;;7.10;99.90;;;;;;5085896;28;20796;-67
2023/11/13 04:02:12;;;;;;;2.03;1.90;;;7.10;99.90;;;;;;5085435;28;20302;-67
2023/11/13 04:04:38;;;;;;;2.03;1.83;;;7.00;99.90;;;;;;5086090;28;20236;-67
2023/11/13 04:07:07;;;;;;;2.67;2.00;;;7.00;99.90;;;;;;5085364;28;20235;-68
2023/11/13 04:09:35;;;;;;;1.90;1.80;;;7.00;99.90;;;;;;5085518;28;20297;-67
2023/11/13 04:12:03;;;;;;;2.33;2.00;;;6.90;99.90;;;;;;5086201;28;20239;-67
2023/11/13 04:14:32;;;;;;;2.00;1.80;;;6.90;99.90;;;;;;5086433;28;20206;-67
2023/11/13 04:16:59;;;;;;;4.03;2.60;;;6.80;99.90;;;;;;5087045;28;20242;-67
2023/11/13 04:19:29;;;;;;;3.00;2.53;;;6.70;99.90;;;;;;5086427;28;20326;-67
2023/11/13 04:21:56;;;;;;;2.40;2.20;;;6.70;99.90;;;;;;5086663;28;20230;-67
2023/11/13 04:24:24;;;;;;;2.70;2.07;;;6.70;99.90;;;;;;5086073;28;20293;-67
2023/11/13 04:26:51;;;;;;;2.30;2.10;;;6.80;99.90;;;;;;5086076;28;20289;-67
2023/11/13 04:29:18;;;;;;;2.83;1.87;;;6.80;99.90;;;;;;5086019;28;20267;-67
2023/11/13 04:31:45;;;;;;;2.20;1.77;;;6.80;99.90;;;;;;5085659;28;20747;-67
2023/11/13 04:34:12;;;;;;;4.17;2.60;;;6.80;99.90;;;;;;5085883;28;20206;-67
2023/11/13 04:36:41;;;;;;;3.27;2.10;;;6.80;99.90;;;;;;5086097;28;20293;-67
2023/11/13 04:39:09;;;;;;;2.57;2.30;;;6.80;99.90;;;;;;5086216;28;20214;-67
2023/11/13 04:41:39;;;;;;;1.90;1.77;;;6.80;99.90;;;;;;5085769;28;20302;-67
2023/11/13 04:44:06;;;;;;;2.30;2.10;;;6.80;99.90;;;;;;5085940;28;20298;-67
2023/11/13 04:46:33;;;;;;;3.03;2.07;;;6.80;99.90;;;;;;5086130;28;20310;-67
2023/11/13 04:49:00;;;;;;;2.60;1.97;;;6.80;99.90;;;;;;5087792;28;20219;-67
2023/11/13 04:51:27;;;;;;;2.47;2.00;;;6.80;99.90;;;;;;5106580;28;20213;-67
2023/11/13 04:53:54;;;;;;;2.30;2.10;;;6.80;99.90;;;;;;5106462;28;20297;-67
2023/11/13 04:56:20;;;;;;;2.47;2.23;;;6.90;99.90;;;;;;5105723;28;20294;-67
2023/11/13 04:58:49;;;;;;;2.70;2.00;;;6.90;99.90;;;;;;5084683;28;20295;-68
2023/11/13 05:01:17;;;;;;;2.70;1.90;;;6.90;99.90;;;;;;5081514;28;20222;-67
2023/11/13 05:03:43;;;;;;;3.03;2.17;;;7.00;99.90;;;;;;5085493;28;20214;-67
2023/11/13 05:06:15;;;;;;;1.80;1.77;;;7.00;99.90;;;;;;5085752;28;20661;-67
2023/11/13 05:08:43;;;;;;;2.00;1.90;;;7.00;99.90;;;;;;5085941;28;20578;-67
2023/11/13 05:11:21;;;;;;;2.23;2.10;;;7.00;99.90;;;;;;5085570;28;20238;-67
2023/11/13 05:13:51;;;;;;;1.93;1.73;;;7.00;99.90;;;;;;5085927;28;20240;-67
2023/11/13 05:16:20;;;;;;;1.90;1.80;;;6.90;99.90;;;;;;5085186;28;20206;-68
2023/11/13 05:18:47;;;;;;;3.60;2.30;;;6.90;99.90;;;;;;5085357;28;20613;-66
2023/11/13 05:21:14;;;;;;;2.57;2.37;;;6.90;99.90;;;;;;5085383;28;20235;-66
2023/11/13 05:23:41;;;;;;;2.27;2.17;;;6.80;99.90;;;;;;5085289;28;20298;-66
2023/11/13 05:26:08;;;;;;;2.70;2.50;;;6.80;99.90;;;;;;5084966;28;20207;-67
2023/11/13 05:28:35;;;;;;;2.40;2.10;;;6.80;99.90;;;;;;5085307;28;20221;-67
2023/11/13 05:31:04;;;;;;;2.93;2.63;;;6.70;99.90;;;;;;5084770;28;20954;-67
2023/11/13 05:33:31;;;;;;;3.83;2.30;;;6.70;99.90;;;;;;5085104;28;20222;-67
2023/11/13 05:35:57;;;;;;;2.70;2.50;;;6.70;99.90;;;;;;5085329;28;20214;-67
2023/11/13 05:38:24;;;;;;;3.27;2.70;;;6.70;99.90;;;;;;5085479;28;20276;-67
2023/11/13 05:40:51;;;;;;;3.20;2.20;;;6.70;99.90;;;;;;5085427;28;20664;-67
2023/11/13 05:43:18;;;;;;;3.27;2.30;;;6.70;99.90;;;;;;5085745;28;20639;-67
2023/11/13 05:45:45;;;;;;;2.17;2.00;;;6.80;99.90;;;;;;5084914;28;20289;-67
2023/11/13 05:48:13;;;;;;;3.20;2.03;;;6.80;99.90;;;;;;5083863;28;20264;-67
2023/11/13 05:50:40;;;;;;;3.17;2.33;;;6.80;99.90;;;;;;5084379;28;20297;-67
2023/11/13 05:53:07;;;;;;;3.60;2.40;;;6.80;99.90;;;;;;5084580;28;20212;-67
2023/11/13 05:55:36;;;;;;;2.70;2.50;;;6.80;99.90;;;;;;5084245;28;20214;-67
2023/11/13 05:58:05;;;;;;;2.37;2.17;;;6.80;99.90;;;;;;5084600;28;20732;-67
2023/11/13 06:00:32;;;;;;;3.20;2.90;;;6.80;99.90;;;;;;5084223;28;20420;-67
2023/11/13 06:02:59;;;;;;;3.90;3.60;;;6.80;99.90;;;;;;5084781;28;20202;-67
2023/11/13 06:05:27;;;;;;;3.50;3.30;;;6.80;99.90;;;;;;5084585;28;20574;-67
2023/11/13 06:07:54;;;;;;;4.03;3.70;;;6.80;99.90;;;;;;5087623;28;20325;-67
2023/11/13 06:10:22;;;;;;;3.60;3.30;;;6.80;99.90;;;;;;5088789;28;20239;-67
2023/11/13 06:12:49;;;;;;;2.90;2.70;;;6.70;99.90;;;;;;5088991;28;20214;-67
2023/11/13 06:15:16;;;;;;;4.73;3.00;;;6.70;99.90;;;;;;5088634;28;20286;-67
2023/11/13 06:17:45;;;;;;;4.60;3.27;;;6.70;99.90;;;;;;5088902;28;20207;-67
2023/11/13 06:20:13;;;;;;;4.80;3.20;;;6.70;99.90;;;;;;5088888;28;20245;-67
2023/11/13 06:22:42;;;;;;;2.90;2.70;;;6.60;99.90;;;;;;5088641;28;20228;-67
2023/11/13 06:25:09;;;;;;;4.23;2.83;;;6.60;99.90;;;;;;5088682;28;20321;-67
2023/11/13 06:27:36;;;;;;;3.37;3.03;;;6.60;99.90;;;;;;5088528;28;20212;-67
2023/11/13 06:30:09;;;;;;;3.30;3.00;;;6.70;99.90;;;;;;5088643;28;20207;-67
2023/11/13 06:32:36;;;;;;;3.83;3.20;;;6.70;99.90;;;;;;5088413;28;20468;-67
2023/11/13 06:35:04;;;;;;;4.67;2.97;;;6.70;99.90;;;;;;5087970;28;20207;-68
2023/11/13 06:37:31;;;;;;;2.40;2.20;;;6.70;99.90;;;;;;5088063;28;20661;-67
2023/11/13 06:39:59;;;;;;;2.77;2.30;;;6.80;99.90;;;;;;5088652;28;20751;-67
2023/11/13 06:42:26;;;;;;;2.13;2.03;;;6.80;99.90;;;;;;5088351;28;20297;-67
2023/11/13 06:44:53;;;;;;;3.50;2.40;;;6.90;99.90;;;;;;5088582;28;20203;-67
2023/11/13 06:47:20;;;;;;;2.40;2.20;;;6.90;99.90;;;;;;5087868;28;20210;-67
2023/11/13 06:49:47;;;;;;;2.93;2.73;;;7.00;99.90;;;;;;5096248;28;20301;-67
2023/11/13 06:52:14;;;;;;;2.90;2.57;;;7.00;99.90;;;;;;5087914;28;20215;-67
2023/11/13 06:54:41;;;;;;;2.63;2.43;;;7.00;99.90;;;;;;5088416;28;20218;-67
2023/11/13 06:57:10;;;;;;;2.60;2.40;;;7.00;99.90;;;;;;5087670;28;20678;-67
2023/11/13 06:59:37;;;;;;;2.70;2.50;;;7.00;99.90;;;;;;5087921;28;20210;-67
2023/11/13 07:02:04;;;;;;;3.30;2.30;;;7.00;99.90;;;;;;5087529;28;20270;-67
2023/11/13 07:04:31;;;;;;;3.33;2.10;;;7.00;99.90;;;;;;5087433;28;20207;-68
2023/11/13 07:06:59;;;;;;;2.57;2.03;;;6.90;99.90;;;;;;5087044;28;20245;-67
2023/11/13 07:09:27;;;;;;;2.30;2.20;;;6.90;99.90;;;;;;5087708;28;20282;-67
2023/11/13 07:11:54;;;;;;;2.10;2.00;;;6.90;99.90;;;;;;5087221;28;20312;-67
2023/11/13 07:14:22;;;;;;;2.40;2.20;;;6.80;99.90;;;;;;5087665;28;20577;-67
2023/11/13 07:16:50;;;;;;;2.70;2.50;;;6.90;99.90;;;;;;5087002;28;20213;-67
2023/11/13 07:19:18;;;;;;;2.37;2.23;;;6.90;99.90;;;;;;5087146;28;20210;-68
2023/11/13 07:21:47;;;;;;;3.77;2.20;;;6.90;99.90;;;;;;5087417;28;20283;-67
2023/11/13 07:24:13;;;;;;;2.23;2.13;;;6.90;99.90;;;;;;5087565;28;20285;-67
2023/11/13 07:26:40;;;;;;;3.23;2.60;;;7.00;99.90;;;;;;5087618;28;20206;-67
2023/11/13 07:29:07;;;;;;;2.73;2.17;;;7.00;99.90;;;;;;5087842;28;20301;-67
2023/11/13 07:31:35;;;;;;;3.37;2.53;;;7.00;99.90;;;;;;5087456;28;20291;-67
2023/11/13 07:34:03;;;;;;;19.33;14.67;;;7.00;99.90;;;;;;5087492;28;20246;-68
2023/11/13 07:36:31;;;;;;;4.93;4.40;;;7.10;99.90;;;;;;5087231;28;20242;-68
2023/11/13 07:38:58;;;;;;;2.97;2.20;;;7.10;99.90;;;;;;5086994;28;20289;-67
2023/11/13 07:41:25;;;;;;;3.33;2.47;;;7.10;99.90;;;;;;5086875;28;20239;-67
2023/11/13 07:43:54;;;;;;;3.83;2.50;;;7.10;99.90;;;;;;5086904;28;20224;-67
2023/11/13 07:46:21;;;;;;;4.20;2.70;;;7.10;99.90;;;;;;5086275;28;20242;-67
2023/11/13 07:48:50;;;;;;;2.27;2.00;;;7.20;99.90;;;;;;5086689;28;20321;-67
2023/11/13 07:51:18;;;;;;;2.10;2.00;;;7.20;99.90;;;;;;5104608;28;20377;-67
2023/11/13 07:53:46;;;;;;;2.93;2.10;;;7.30;99.90;;;;;;5086640;28;20210;-67
2023/11/13 07:56:14;;;;;;;3.43;2.53;;;7.40;99.90;;;;;;5086696;28;20234;-67
2023/11/13 07:58:41;;;;;;;4.73;2.10;;;7.40;99.90;;;;;;5087187;28;20272;-67
2023/11/13 08:01:09;;;;;;;3.30;2.20;;;7.50;99.90;;;;;;5086856;28;20314;-67
2023/11/13 08:03:36;;;;;;;3.40;2.47;;;7.60;99.90;;;;;;5087101;28;20215;-67
2023/11/13 08:06:04;;;;;;;2.00;1.90;;;7.60;99.90;;;;;;5087083;28;20215;-67
2023/11/13 08:08:33;;;;;;;3.63;1.93;;;7.70;99.90;;;;;;5086284;28;20296;-67
2023/11/13 08:11:00;;;;;;;2.00;1.90;;;7.70;99.90;;;;;;5086629;28;20230;-67
2023/11/13 08:13:27;;;;;;;2.27;2.17;;;7.80;99.90;;;;;;5086205;28;20673;-67
2023/11/13 08:15:54;;;;;;;2.87;2.17;;;7.80;99.90;;;;;;5086462;28;20222;-67
2023/11/13 08:18:22;;;;;;;5.83;2.33;;;7.90;99.90;;;;;;5086688;28;20214;-67
2023/11/13 08:20:49;;;;;;;2.63;2.43;;;7.90;99.90;;;;;;5086957;28;20235;-67
2023/11/13 08:23:18;;;;;;;2.40;2.00;;;8.00;99.90;;;;;;5086411;28;20233;-67
2023/11/13 08:25:46;;;;;;;2.30;2.10;;;8.10;99.90;;;;;;5086964;28;20226;-67
2023/11/13 08:28:13;;;;;;;2.30;2.10;;;8.10;99.90;;;;;;5086559;28;20858;-67
2023/11/13 08:30:43;;;;;;;3.27;2.00;;;8.20;99.90;;;;;;5085892;28;20207;-67
2023/11/13 08:33:11;;;;;;;4.17;2.40;;;8.20;99.90;;;;;;5086298;28;20214;-67
2023/11/13 08:35:38;;;;;;;2.40;2.20;;;8.20;99.90;;;;;;5086869;28;20213;-67
2023/11/13 08:38:05;;;;;;;2.73;2.10;;;8.20;99.90;;;;;;5086248;28;20235;-68
2023/11/13 08:40:34;;;;;;;2.77;2.40;;;8.20;99.90;;;;;;5084441;28;20702;-68
2023/11/13 08:43:06;;;;;;;2.07;1.93;;;8.20;99.90;;;;;;5085836;28;20211;-67
2023/11/13 08:45:35;;;;;;;4.73;2.37;;;8.30;99.90;;;;;;5085798;28;20203;-67
2023/11/13 08:48:02;;;;;;;2.20;2.00;;;8.30;99.90;;;;;;5086098;28;20308;-67
2023/11/13 08:50:30;;;;;;;2.40;2.20;;;8.40;99.90;;;;;;5099850;28;20218;-67
2023/11/13 08:52:58;;;;;;;2.00;1.90;;;8.50;99.90;;;;;;5106658;28;20210;-67
2023/11/13 08:55:26;;;;;;;2.57;2.07;;;8.60;99.90;;;;;;5106518;28;20286;-67
2023/11/13 08:57:57;;;;;;;1.80;1.60;;;8.70;99.90;;;;;;5106450;28;20266;-67
2023/11/13 09:00:29;;;;;;;3.37;1.80;;;8.80;99.90;;;;;;5106409;28;20568;-67
2023/11/13 09:02:57;;;;;;;2.10;1.90;;;8.90;99.90;;;;;;5106140;28;20222;-67
2023/11/13 09:05:26;;;;;;;2.40;2.07;;;9.00;99.90;;;;;;5106427;28;20214;-68
2023/11/13 09:07:53;;;;;;;1.90;1.80;;;9.10;99.90;;;;;;5104581;28;20316;-67
2023/11/13 09:10:21;;;;;;;2.00;1.70;;;9.20;99.90;;;;;;5085399;28;20333;-67
2023/11/13 09:12:49;;;;;;;2.33;2.10;;;9.30;99.90;;;;;;5085979;28;20646;-67
2023/11/13 09:15:17;;;;;;;3.07;1.83;;;9.30;99.90;;;;;;5085237;28;20739;-68
2023/11/13 09:17:47;;;;;;;2.13;2.03;;;9.40;99.90;;;;;;5085257;28;20211;-67
2023/11/13 09:20:15;;;;;;;3.57;1.90;;;9.40;99.90;;;;;;5073111;28;20638;-67
2023/11/13 09:22:43;;;;;;;2.90;2.40;;;9.40;99.90;;;;;;5065264;28;20234;-67
2023/11/13 09:25:14;;;;;;;2.70;2.50;;;9.40;99.90;;;;;;5064686;28;20662;-68
2023/11/13 09:27:42;;;;;;;2.77;2.20;;;9.40;99.90;;;;;;5065295;28;20595;-67
2023/11/13 09:30:11;;;;;;;2.37;2.13;;;9.40;99.90;;;;;;5064738;28;20669;-67
2023/11/13 09:32:40;;;;;;;4.07;2.30;;;9.40;99.90;;;;;;5064878;28;20210;-67
2023/11/13 09:35:14;;;;;;;3.30;2.57;;;9.40;99.90;;;;;;5071315;28;20297;-67
2023/11/13 09:37:41;;;;;;;2.40;2.20;;;9.50;99.90;;;;;;5085255;28;20225;-67
2023/11/13 09:40:14;;;;;;;2.77;2.20;;;9.60;99.90;;;;;;5084712;28;20732;-67
2023/11/13 09:42:42;;;;;;;3.27;2.00;;;9.80;99.90;;;;;;5084375;28;20227;-67
2023/11/13 09:45:13;;;;;;;4.37;3.97;;;9.80;99.90;;;;;;5084973;28;20631;-67
2023/11/13 09:47:44;;;;;;;3.07;2.83;;;9.90;99.90;;;;;;5085119;28;20206;-67
2023/11/13 09:50:16;;;;;;;2.40;2.20;;;10.00;99.90;;;;;;5095960;28;20206;-67
2023/11/13 09:52:46;;;;;;;3.73;3.33;;;10.00;99.90;;;;;;5105434;28;20209;-67
2023/11/13 09:55:18;;;;;;;5.73;4.67;;;10.10;99.90;;;;;;5105366;28;20216;-67
2023/11/13 09:57:45;;;;;;;3.77;2.73;;;10.10;99.90;;;;;;5105514;28;20704;-67
2023/11/13 10:00:16;;;;;;;2.53;2.37;;;10.10;99.90;;;;;;5105591;28;20285;-67
2023/11/13 10:02:46;;;;;;;2.60;2.40;;;10.10;99.90;;;;;;5104802;28;20214;-67
2023/11/13 10:05:15;;;;;;;6.60;2.40;;;10.10;99.90;;;;;;5105442;28;20205;-67
2023/11/13 10:07:47;;;;;;;3.20;2.40;;;10.10;99.90;;;;;;5104708;28;20761;-67
2023/11/13 10:10:18;;;;;;;2.77;2.50;;;10.10;99.90;;;;;;5064149;28;20227;-67
2023/11/13 10:12:46;;;;;;;5.40;2.60;;;10.20;99.90;;;;;;5064684;28;20252;-68
2023/11/13 10:15:17;;;;;;;3.57;2.60;;;10.20;99.90;;;;;;5064485;28;20211;-67
2023/11/13 10:17:46;;;;;;;2.80;2.10;;;10.30;99.90;;;;;;5064863;28;20218;-67
2023/11/13 10:20:17;;;;;;;5.27;2.30;;;10.50;99.90;;;;;;5076011;28;20573;-67
2023/11/13 10:22:44;;;;;;;5.47;2.70;;;10.50;99.90;;;;;;5084786;28;20218;-67
2023/11/13 10:25:11;;;;;;;4.80;2.40;;;10.50;99.90;;;;;;5084748;28;20211;-67
2023/11/13 10:27:40;;;;;;;2.93;2.40;;;10.60;99.90;;;;;;5085009;28;20211;-67
2023/11/13 10:30:07;;;;;;;2.50;2.30;;;10.80;99.90;;;;;;5084878;28;20618;-67
2023/11/13 10:32:36;;;;;;;2.63;2.43;;;10.90;99.90;;;;;;5084294;28;20810;-68
2023/11/13 10:35:09;;;;;;;4.37;2.53;;;11.00;99.90;;;;;;5084454;28;20202;-67
2023/11/13 10:37:38;;;;;;;3.83;2.87;;;11.10;99.90;;;;;;5084087;28;20264;-67
2023/11/13 10:40:11;;;;;;;5.50;3.10;;;11.10;99.90;;;;;;5084164;28;20679;-67
2023/11/13 10:42:38;;;;;;;2.83;2.63;;;11.00;99.90;;;;;;5084423;28;20827;-68
2023/11/13 10:45:12;;;;;;;4.73;2.80;;;10.90;99.90;;;;;;5084420;28;20310;-67
2023/11/13 10:47:49;;;;;;;2.90;2.60;;;10.90;99.90;;;;;;5084075;28;20231;-67
2023/11/13 10:50:21;;;;;;;3.17;2.87;;;10.80;99.90;;;;;;5096450;28;20205;-67
2023/11/13 10:52:49;;;;;;;3.60;3.30;;;10.80;99.90;;;;;;5105794;28;20198;-67
2023/11/13 10:55:19;;;;;;;5.17;3.03;;;10.80;99.90;;;;;;5108140;28;20235;-67
2023/11/13 10:57:46;;;;;;;3.00;2.80;;;10.80;99.90;;;;;;5108536;28;20664;-67
2023/11/13 11:00:14;;;;;;;3.20;3.00;;;10.80;99.90;;;;;;5108335;28;20290;-67
2023/11/13 11:02:45;;;;;;;3.17;2.87;;;10.80;99.90;;;;;;5108298;28;20324;-67
2023/11/13 11:05:21;;;;;;;3.57;3.27;;;10.80;99.90;;;;;;5097711;28;20210;-67
2023/11/13 11:07:53;;;;;;;3.50;3.10;;;10.90;99.90;;;;;;5087685;28;20254;-68
2023/11/13 11:10:24;;;;;;;3.73;3.10;;;10.90;99.90;;;;;;5087790;28;20234;-67
2023/11/13 11:13:00;;;;;;;3.03;2.80;;;10.90;99.90;;;;;;5088069;28;20203;-67
2023/11/13 11:16:07;;;;;;;2.40;2.30;;;10.80;99.90;;;;;;5088035;28;20194;-67
2023/11/13 11:18:41;;;;;;;2.73;1.93;;;10.80;99.90;;;;;;5057181;28;20657;-67
2023/11/13 11:21:28;;;;;;;2.63;2.30;;;10.80;99.90;;;;;;5087662;28;20289;-67
2023/11/13 11:24:02;;;;;;;2.90;2.20;;;10.80;99.90;;;;;;5087769;28;20278;-67
2023/11/13 11:26:29;;;;;;;5.33;2.47;;;10.90;99.90;;;;;;5087373;28;20890;-68
2023/11/13 11:28:55;;;;;;;5.23;2.60;;;11.10;99.90;;;;;;5087585;28;20213;-69
2023/11/13 11:31:48;;;;;;;5.70;2.43;;;11.40;99.90;;;;;;5086927;28;20203;-68
2023/11/13 11:34:21;;;;;;;3.60;2.70;;;11.60;99.90;;;;;;5066905;28;20577;-67
2023/11/13 11:36:53;;;;;;;6.33;3.00;;;11.90;99.90;;;;;;5066935;28;20260;-67
2023/11/13 11:39:22;;;;;;;5.53;3.10;;;12.10;99.90;;;;;;5076336;28;20215;-67
2023/11/13 11:41:51;;;;;;;5.23;2.70;;;12.30;99.90;;;;;;5087048;28;20233;-68
2023/11/13 11:44:21;;;;;;;3.43;2.90;;;12.40;99.90;;;;;;5087156;28;20238;-68
2023/11/13 11:46:48;;;;;;;3.67;2.57;;;12.50;99.90;;;;;;5087084;28;20256;-67
2023/11/13 11:49:24;;;;;;;3.10;2.43;;;12.70;99.90;;;;;;5090611;28;20473;-68
2023/11/13 11:51:54;;;;;;;4.97;2.73;;;12.80;99.90;;;;;;5107209;28;20251;-68
2023/11/13 11:54:22;;;;;;;2.80;2.60;;;12.80;99.90;;;;;;5107093;28;20740;-67
2023/11/13 11:57:02;;;;;;;3.53;2.70;;;12.90;99.90;;;;;;5107416;28;20308;-67
2023/11/13 11:59:30;;;;;;;4.50;2.50;;;13.00;99.90;;;;;;5107344;28;20215;-67
2023/11/13 12:01:58;;;;;;;3.93;2.40;;;13.00;99.90;;;;;;5090023;28;20255;-67
2023/11/13 12:04:25;;;;;;;2.33;2.20;;;13.00;99.90;;;;;;5065809;28;20211;-67
2023/11/13 12:06:54;;;;;;;2.70;2.50;;;13.00;99.90;;;;;;5066890;28;20330;-68
2023/11/13 12:09:22;;;;;;;2.83;2.47;;;13.00;99.90;;;;;;5066712;28;20227;-67
2023/11/13 12:11:49;;;;;;;3.80;2.50;;;13.10;99.90;;;;;;5066737;28;20665;-67
2023/11/13 12:14:17;;;;;;;3.30;2.87;;;13.10;99.90;;;;;;5067006;28;20203;-67
2023/11/13 12:16:44;;;;;;;5.77;2.60;;;13.10;99.90;;;;;;5066292;28;20669;-67
2023/11/13 12:19:12;;;;;;;2.23;2.13;;;13.10;99.90;;;;;;5066510;28;20294;-67
2023/11/13 12:21:41;;;;;;;2.63;2.43;;;13.10;99.90;;;;;;5065899;28;20672;-67
2023/11/13 12:24:10;;;;;;;3.50;2.60;;;13.00;99.90;;;;;;5074559;28;20211;-67
2023/11/13 12:26:39;;;;;;;3.10;2.33;;;12.90;99.90;;;;;;5086268;28;20763;-67
2023/11/13 12:29:14;;;;;;;3.63;2.57;;;12.90;99.90;;;;;;5086276;28;20218;-67
2023/11/13 12:31:42;;;;;;;5.47;2.80;;;12.80;99.90;;;;;;5085770;28;20210;-67
2023/11/13 12:34:09;;;;;;;2.57;2.37;;;12.50;99.90;;;;;;5086251;28;20203;-67
2023/11/13 12:36:38;;;;;;;2.83;2.40;;;12.30;99.90;;;;;;5086431;28;20298;-67
2023/11/13 12:39:07;;;;;;;3.90;2.37;;;12.10;99.90;;;;;;5085748;28;20564;-67
2023/11/13 12:41:35;;;;;;;2.83;2.53;;;12.00;99.90;;;;;;5086171;28;20214;-67
2023/11/13 12:44:05;;;;;;;2.70;2.50;;;12.00;99.90;;;;;;5085647;28;20730;-67
2023/11/13 12:46:32;;;;;;;5.00;2.33;;;12.10;99.90;;;;;;5086153;28;20207;-67
2023/11/13 12:48:59;;;;;;;5.40;2.70;;;12.30;99.90;;;;;;5085698;28;20207;-67
2023/11/13 12:51:29;;;;;;;5.43;2.60;;;12.40;99.90;;;;;;5085157;28;20907;-67
2023/11/13 12:53:57;;;;;;;2.37;2.23;;;12.40;99.90;;;;;;5085535;28;20214;-67
2023/11/13 12:56:24;;;;;;;2.60;2.30;;;12.20;99.90;;;;;;5085269;28;20806;-67
2023/11/13 12:58:54;;;;;;;2.90;2.40;;;12.10;99.90;;;;;;5085502;28;20211;-67
2023/11/13 13:01:21;;;;;;;2.80;2.33;;;12.00;99.90;;;;;;5085399;28;20230;-67